createdAt,value
2017-07-07T00:00:40.606Z,74.66
2017-07-07T00:03:08.123Z,74.02
2017-07-07T00:05:35.720Z,73.88
2017-07-07T00:08:03.233Z,73.97
2017-07-07T00:10:30.800Z,74.39
2017-07-07T00:12:58.392Z,74.33
2017-07-07T00:15:25.973Z,74.57
2017-07-07T00:17:53.492Z,74.04
2017-07-07T00:20:21.084Z,74.32
2017-07-07T00:22:48.650Z,74.28
2017-07-07T00:25:16.232Z,73.85
2017-07-07T00:27:43.832Z,73.76
2017-07-07T00:30:11.396Z,73.72
2017-07-07T00:32:38.924Z,73.83
2017-07-07T00:35:06.543Z,73.56
2017-07-07T00:37:34.184Z,73.34
2017-07-07T00:40:01.743Z,73.52
2017-07-07T00:42:29.265Z,72.77
2017-07-07T00:44:56.820Z,73.04
2017-07-07T00:47:24.352Z,72.89
2017-07-07T00:49:51.891Z,73.34
2017-07-07T00:52:19.403Z,73.26
2017-07-07T00:54:46.936Z,73.54
2017-07-07T00:57:14.443Z,73.54
2017-07-07T00:59:41.988Z,73.24
2017-07-07T01:02:09.553Z,73.05
2017-07-07T01:04:37.122Z,73.06
2017-07-07T01:07:04.630Z,73.48
2017-07-07T01:09:32.187Z,74.26
2017-07-07T01:11:59.720Z,73.44
2017-07-07T01:14:27.307Z,74.67
2017-07-07T01:16:54.887Z,73.73
2017-07-07T01:19:22.407Z,74.06
2017-07-07T01:21:49.959Z,73.86
2017-07-07T01:24:17.479Z,74.52
2017-07-07T01:26:45.040Z,74.61
2017-07-07T01:29:12.568Z,74.28
2017-07-07T01:31:40.080Z,74.46
2017-07-07T01:34:07.648Z,74.49
2017-07-07T01:36:35.352Z,74.49
2017-07-07T01:39:02.875Z,74.48
2017-07-07T01:41:30.372Z,74.39
2017-07-07T01:43:57.924Z,74.17
2017-07-07T01:46:25.438Z,74.27
2017-07-07T01:48:52.998Z,74.20
2017-07-07T01:51:20.500Z,74.32
2017-07-07T01:53:48.031Z,74.47
2017-07-07T01:56:15.544Z,74.22
2017-07-07T01:58:43.071Z,74.48
2017-07-07T02:01:10.586Z,75.54
2017-07-07T02:03:38.140Z,75.66
2017-07-07T02:06:05.653Z,75.61
2017-07-07T02:08:33.208Z,76.34
2017-07-07T02:11:00.755Z,76.52
2017-07-07T02:13:28.323Z,76.98
2017-07-07T02:15:55.842Z,77.22
2017-07-07T02:18:23.363Z,76.69
2017-07-07T02:20:50.900Z,76.57
2017-07-07T02:23:18.485Z,76.06
2017-07-07T02:25:46.027Z,76.61
2017-07-07T02:28:13.539Z,76.37
2017-07-07T02:30:41.119Z,76.52
2017-07-07T02:33:08.647Z,76.39
2017-07-07T02:35:36.179Z,76.80
2017-07-07T02:38:03.808Z,76.37
2017-07-07T02:40:31.322Z,76.77
2017-07-07T02:42:58.855Z,76.84
2017-07-07T02:45:26.386Z,77.01
2017-07-07T02:47:54.004Z,76.83
2017-07-07T02:50:21.507Z,76.77
2017-07-07T02:52:49.097Z,77.15
2017-07-07T02:55:16.618Z,76.92
2017-07-07T02:57:44.171Z,76.94
2017-07-07T03:00:11.692Z,76.99
2017-07-07T03:02:39.237Z,77.17
2017-07-07T03:05:06.752Z,76.92
2017-07-07T03:07:34.291Z,76.96
2017-07-07T03:10:01.800Z,76.61
2017-07-07T03:12:29.352Z,77.04
2017-07-07T03:14:56.899Z,77.46
2017-07-07T03:17:24.424Z,77.69
2017-07-07T03:19:51.940Z,77.01
2017-07-07T03:22:19.482Z,77.34
2017-07-07T03:24:47.004Z,77.20
2017-07-07T03:27:14.554Z,77.76
2017-07-07T03:29:42.103Z,78.42
2017-07-07T03:32:09.675Z,78.06
2017-07-07T03:34:37.243Z,78.16
2017-07-07T03:37:04.796Z,77.76
2017-07-07T03:39:32.315Z,77.13
2017-07-07T03:41:59.980Z,78.36
2017-07-07T03:44:27.503Z,78.75
2017-07-07T03:46:55.060Z,78.09
2017-07-07T03:49:22.592Z,78.56
2017-07-07T03:51:50.211Z,78.75
2017-07-07T03:54:17.845Z,78.17
2017-07-07T03:56:45.525Z,78.60
2017-07-07T03:59:13.052Z,77.86
2017-07-07T04:01:40.627Z,78.05
2017-07-07T04:04:08.219Z,78.19
2017-07-07T04:06:35.891Z,78.19
2017-07-07T04:09:03.493Z,78.95
2017-07-07T04:11:31.085Z,78.41
2017-07-07T04:13:58.656Z,79.05
2017-07-07T04:16:26.166Z,78.29
2017-07-07T04:18:53.725Z,78.05
2017-07-07T04:21:21.230Z,77.79
2017-07-07T04:23:48.781Z,77.97
2017-07-07T04:26:16.287Z,77.95
2017-07-07T04:28:43.826Z,77.74
2017-07-07T04:31:11.384Z,78.14
2017-07-07T04:33:38.949Z,78.56
2017-07-07T04:36:06.477Z,78.39
2017-07-07T04:38:34.032Z,78.33
2017-07-07T04:41:01.556Z,78.39
2017-07-07T04:43:29.095Z,78.51
2017-07-07T04:45:56.610Z,78.61
2017-07-07T04:48:24.135Z,78.69
2017-07-07T04:50:51.682Z,78.96
2017-07-07T04:53:19.304Z,78.72
2017-07-07T04:55:46.820Z,78.30
2017-07-07T04:58:14.363Z,78.52
2017-07-07T05:00:41.897Z,78.39
2017-07-07T05:03:09.476Z,78.59
2017-07-07T05:05:37.020Z,78.62
2017-07-07T05:08:04.597Z,78.90
2017-07-07T05:10:32.140Z,79.27
2017-07-07T05:12:59.676Z,79.39
2017-07-07T05:15:27.225Z,78.82
2017-07-07T05:17:54.745Z,79.12
2017-07-07T05:20:22.279Z,79.18
2017-07-07T05:22:49.814Z,79.30
2017-07-07T05:25:17.356Z,78.83
2017-07-07T05:27:44.956Z,78.65
2017-07-07T05:30:12.513Z,77.97
2017-07-07T05:32:40.017Z,78.13
2017-07-07T05:35:07.561Z,78.26
2017-07-07T05:37:35.073Z,77.82
2017-07-07T05:40:02.680Z,78.21
2017-07-07T05:42:30.192Z,78.34
2017-07-07T05:44:57.752Z,78.54
2017-07-07T05:47:25.249Z,78.68
2017-07-07T05:49:52.788Z,77.96
2017-07-07T05:52:20.303Z,77.79
2017-07-07T05:54:47.841Z,77.79
2017-07-07T05:57:15.358Z,77.40
2017-07-07T05:59:42.923Z,76.49
2017-07-07T06:02:10.492Z,76.84
2017-07-07T06:04:38.011Z,76.83
2017-07-07T06:07:05.672Z,76.87
2017-07-07T06:09:33.245Z,76.40
2017-07-07T06:12:00.821Z,75.89
2017-07-07T06:14:28.361Z,74.99
2017-07-07T06:16:55.339Z,75.06
2017-07-07T06:19:22.284Z,74.36
2017-07-07T06:21:49.248Z,74.62
2017-07-07T06:24:16.771Z,74.41
2017-07-07T06:26:44.357Z,73.98
2017-07-07T06:29:11.891Z,73.25
2017-07-07T06:31:39.514Z,73.39
2017-07-07T06:34:07.131Z,72.68
2017-07-07T06:36:34.744Z,72.10
2017-07-07T06:39:02.262Z,72.07
2017-07-07T06:41:29.801Z,71.96
2017-07-07T06:43:57.511Z,71.70
2017-07-07T06:46:25.057Z,70.02
2017-07-07T06:48:52.728Z,67.08
2017-07-07T06:51:20.254Z,67.59
2017-07-07T06:53:47.808Z,68.54
2017-07-07T06:56:15.305Z,69.17
2017-07-07T06:58:42.844Z,69.53
2017-07-07T07:01:10.360Z,67.96
2017-07-07T07:03:37.903Z,66.42
2017-07-07T07:06:05.408Z,66.07
2017-07-07T07:08:32.951Z,64.53
2017-07-07T07:11:00.461Z,63.14
2017-07-07T07:13:28.032Z,63.11
2017-07-07T07:15:55.573Z,63.20
2017-07-07T07:18:23.143Z,62.54
2017-07-07T07:20:50.656Z,62.66
2017-07-07T07:23:18.216Z,62.63
2017-07-07T07:25:45.725Z,62.34
2017-07-07T07:28:13.275Z,62.02
2017-07-07T07:30:40.855Z,62.29
2017-07-07T07:33:08.398Z,62.16
2017-07-07T07:35:35.928Z,62.64
2017-07-07T07:38:03.442Z,61.92
2017-07-07T07:40:31.100Z,62.18
2017-07-07T07:42:58.693Z,62.43
2017-07-07T07:45:26.236Z,61.07
2017-07-07T07:47:53.768Z,61.72
2017-07-07T07:50:21.318Z,61.83
2017-07-07T07:52:48.838Z,61.79
2017-07-07T07:55:16.387Z,61.70
2017-07-07T07:57:43.898Z,61.22
2017-07-07T08:00:11.435Z,61.60
2017-07-07T08:02:38.966Z,61.24
2017-07-07T08:05:06.514Z,61.17
2017-07-07T08:07:34.019Z,60.63
2017-07-07T08:10:01.576Z,60.50
2017-07-07T08:12:29.085Z,60.52
2017-07-07T08:14:56.652Z,60.34
2017-07-07T08:17:24.175Z,59.95
2017-07-07T08:19:51.684Z,60.18
2017-07-07T08:22:19.210Z,59.93
2017-07-07T08:24:46.775Z,60.50
2017-07-07T08:27:14.282Z,60.21
2017-07-07T08:29:42.037Z,60.36
2017-07-07T08:32:09.567Z,60.18
2017-07-07T08:34:37.118Z,60.69
2017-07-07T08:37:04.651Z,60.20
2017-07-07T08:39:32.256Z,60.84
2017-07-07T08:41:59.804Z,60.08
2017-07-07T08:44:27.372Z,60.51
2017-07-07T08:46:54.992Z,60.79
2017-07-07T08:49:22.632Z,60.60
2017-07-07T08:51:50.171Z,60.36
2017-07-07T08:54:17.692Z,60.76
2017-07-07T08:56:45.252Z,60.87
2017-07-07T08:59:12.764Z,60.77
2017-07-07T09:01:40.305Z,61.00
2017-07-07T09:04:07.822Z,61.02
2017-07-07T09:06:35.368Z,61.05
2017-07-07T09:09:03.089Z,60.36
2017-07-07T09:11:30.607Z,60.55
2017-07-07T09:13:58.127Z,60.86
2017-07-07T09:16:25.677Z,60.75
2017-07-07T09:18:53.201Z,59.62
2017-07-07T09:21:20.747Z,60.10
2017-07-07T09:23:48.271Z,60.04
2017-07-07T09:26:15.815Z,59.66
2017-07-07T09:28:43.352Z,59.45
2017-07-07T09:31:10.892Z,59.47
2017-07-07T09:33:38.407Z,59.36
2017-07-07T09:36:06.085Z,59.44
2017-07-07T09:38:33.716Z,59.64
2017-07-07T09:41:01.251Z,59.13
2017-07-07T09:43:28.772Z,59.32
2017-07-07T09:45:56.344Z,58.53
2017-07-07T09:48:23.914Z,58.91
2017-07-07T09:50:51.465Z,59.19
2017-07-07T09:53:18.987Z,59.72
2017-07-07T09:55:46.525Z,58.98
2017-07-07T09:58:14.075Z,59.37
2017-07-07T10:00:41.882Z,59.89
2017-07-07T10:03:09.399Z,58.87
2017-07-07T10:05:36.921Z,58.98
2017-07-07T10:08:04.479Z,59.31
2017-07-07T10:10:32.115Z,59.63
2017-07-07T10:12:59.840Z,59.25
2017-07-07T10:15:27.368Z,59.00
2017-07-07T10:17:55.202Z,58.47
2017-07-07T10:20:22.744Z,58.12
2017-07-07T10:22:50.303Z,58.00
2017-07-07T10:25:17.819Z,58.03
2017-07-07T10:27:45.351Z,57.39
2017-07-07T10:30:12.893Z,56.17
2017-07-07T10:32:40.423Z,55.31
2017-07-07T10:35:07.968Z,54.16
2017-07-07T10:37:35.527Z,53.90
2017-07-07T10:40:03.165Z,54.27
2017-07-07T10:42:30.744Z,53.91
2017-07-07T10:44:58.406Z,53.08
2017-07-07T10:47:25.952Z,53.16
2017-07-07T10:49:53.536Z,53.33
2017-07-07T10:52:21.107Z,52.51
2017-07-07T10:54:48.746Z,52.96
2017-07-07T10:57:16.263Z,53.67
2017-07-07T10:59:43.789Z,54.02
2017-07-07T11:02:11.367Z,54.01
2017-07-07T11:04:38.897Z,53.39
2017-07-07T11:07:06.449Z,52.95
2017-07-07T11:09:33.972Z,51.37
2017-07-07T11:12:01.531Z,51.08
2017-07-07T11:14:29.069Z,51.43
2017-07-07T11:16:56.597Z,51.77
2017-07-07T11:19:24.135Z,51.76
2017-07-07T11:21:51.660Z,51.23
2017-07-07T11:24:19.199Z,50.91
2017-07-07T11:26:46.716Z,48.10
2017-07-07T11:29:14.267Z,48.14
2017-07-07T11:31:41.795Z,48.30
2017-07-07T11:34:09.334Z,47.87
2017-07-07T11:36:36.888Z,47.83
2017-07-07T11:39:04.429Z,47.71
2017-07-07T11:41:32.005Z,47.11
2017-07-07T11:43:59.601Z,46.96
2017-07-07T11:46:27.216Z,46.53
2017-07-07T11:48:54.723Z,46.07
2017-07-07T11:51:22.428Z,45.92
2017-07-07T11:53:49.947Z,44.06
2017-07-07T11:56:17.513Z,43.94
2017-07-07T11:58:45.092Z,43.55
2017-07-07T12:01:12.715Z,43.44
2017-07-07T12:03:40.378Z,42.61
2017-07-07T12:06:07.900Z,42.75
2017-07-07T12:08:35.489Z,42.99
2017-07-07T12:11:03.052Z,43.03
2017-07-07T12:13:30.575Z,42.92
2017-07-07T12:15:58.243Z,41.11
2017-07-07T12:18:25.770Z,41.83
2017-07-07T12:20:53.314Z,41.41
2017-07-07T12:23:20.859Z,40.16
2017-07-07T12:25:48.377Z,40.88
2017-07-07T12:28:16.828Z,41.08
2017-07-07T12:30:44.343Z,41.04
2017-07-07T12:33:11.939Z,40.81
2017-07-07T12:35:39.456Z,39.84
2017-07-07T12:38:07.022Z,39.81
2017-07-07T12:40:34.555Z,38.55
2017-07-07T12:43:02.101Z,38.48
2017-07-07T12:45:29.626Z,39.35
2017-07-07T12:47:57.184Z,38.22
2017-07-07T12:50:24.704Z,37.89
2017-07-07T12:52:52.275Z,36.53
2017-07-07T12:55:19.791Z,37.75
2017-07-07T12:57:47.393Z,38.17
2017-07-07T13:00:14.940Z,37.04
2017-07-07T13:02:42.517Z,37.32
2017-07-07T13:05:10.030Z,36.04
2017-07-07T13:07:37.620Z,35.75
2017-07-07T13:10:05.171Z,36.76
2017-07-07T13:12:32.713Z,36.89
2017-07-07T13:15:00.266Z,37.23
2017-07-07T13:17:27.896Z,37.10
2017-07-07T13:19:55.477Z,36.54
2017-07-07T13:22:23.010Z,36.73
2017-07-07T13:24:50.523Z,36.47
2017-07-07T13:27:18.082Z,36.19
2017-07-07T13:29:45.616Z,35.78
2017-07-07T13:32:13.173Z,35.61
2017-07-07T13:34:40.672Z,35.66
2017-07-07T13:37:08.224Z,34.70
2017-07-07T13:39:35.736Z,33.88
2017-07-07T13:42:03.302Z,34.22
2017-07-07T13:44:30.872Z,34.24
2017-07-07T13:46:58.403Z,33.84
2017-07-07T13:49:26.085Z,33.78
2017-07-07T13:51:53.612Z,34.58
2017-07-07T13:54:21.113Z,34.41
2017-07-07T13:56:48.664Z,33.01
2017-07-07T13:59:16.184Z,32.54
2017-07-07T14:01:43.828Z,32.85
2017-07-07T14:04:11.348Z,33.13
2017-07-07T14:06:38.861Z,33.04
2017-07-07T14:09:06.404Z,32.73
2017-07-07T14:11:33.923Z,32.29
2017-07-07T14:14:01.544Z,32.50
2017-07-07T14:16:29.064Z,32.59
2017-07-07T14:18:56.612Z,33.14
2017-07-07T14:21:24.123Z,32.64
2017-07-07T14:23:51.787Z,32.20
2017-07-07T14:26:19.307Z,31.98
2017-07-07T14:28:46.851Z,32.53
2017-07-07T14:31:14.406Z,31.82
2017-07-07T14:33:41.925Z,32.92
2017-07-07T14:36:09.492Z,33.17
2017-07-07T14:38:36.992Z,32.85
2017-07-07T14:41:04.689Z,33.00
2017-07-07T14:43:32.229Z,32.54
2017-07-07T14:45:59.743Z,33.13
2017-07-07T14:48:27.312Z,33.95
2017-07-07T14:50:54.844Z,33.80
2017-07-07T14:53:22.400Z,33.98
2017-07-07T14:55:49.904Z,34.16
2017-07-07T14:58:17.697Z,34.42
2017-07-07T15:00:45.224Z,34.90
2017-07-07T15:03:12.740Z,35.28
2017-07-07T15:05:40.292Z,35.10
2017-07-07T15:08:07.819Z,34.76
2017-07-07T15:10:35.375Z,35.14
2017-07-07T15:13:02.900Z,35.19
2017-07-07T15:15:30.820Z,34.41
2017-07-07T15:17:58.529Z,34.81
2017-07-07T15:20:26.044Z,34.85
2017-07-07T15:22:53.602Z,34.69
2017-07-07T15:25:21.132Z,35.02
2017-07-07T15:27:48.702Z,34.31
2017-07-07T15:30:16.228Z,33.84
2017-07-07T15:32:43.795Z,34.67
2017-07-07T15:35:11.313Z,34.91
2017-07-07T15:37:39.039Z,33.87
2017-07-07T15:40:06.557Z,33.07
2017-07-07T15:42:34.103Z,33.70
2017-07-07T15:45:01.652Z,34.22
2017-07-07T15:47:29.426Z,33.98
2017-07-07T15:49:57.401Z,33.88
2017-07-07T15:52:25.026Z,33.60
2017-07-07T15:54:52.548Z,33.75
2017-07-07T15:57:20.260Z,34.45
2017-07-07T15:59:47.866Z,34.36
2017-07-07T16:02:15.419Z,34.68
2017-07-07T16:07:16.940Z,34.33
2017-07-07T16:09:44.450Z,34.44
2017-07-07T16:12:11.986Z,36.88
2017-07-07T16:14:39.553Z,36.75
2017-07-07T16:17:07.067Z,37.14
2017-07-07T16:19:34.804Z,37.81
2017-07-07T16:22:02.312Z,38.33
2017-07-07T16:24:29.890Z,38.87
2017-07-07T16:26:57.444Z,38.81
2017-07-07T16:29:26.694Z,39.16
2017-07-07T16:31:54.476Z,39.46
2017-07-07T16:34:21.996Z,39.51
2017-07-07T16:36:49.606Z,38.95
2017-07-07T16:39:17.272Z,39.27
2017-07-07T16:41:44.880Z,39.66
2017-07-07T16:44:12.422Z,39.89
2017-07-07T16:46:40.004Z,39.48
2017-07-07T16:49:07.562Z,38.85
2017-07-07T16:51:35.079Z,39.00
2017-07-07T16:54:03.579Z,39.55
2017-07-07T16:56:31.097Z,39.50
2017-07-07T16:58:58.645Z,39.74
2017-07-07T17:01:26.263Z,40.19
2017-07-07T17:03:53.789Z,39.88
2017-07-07T17:06:21.460Z,39.83
2017-07-07T17:08:48.989Z,39.17
2017-07-07T17:11:16.515Z,38.58
2017-07-07T17:13:44.084Z,38.81
2017-07-07T17:16:11.605Z,38.35
2017-07-07T17:18:39.198Z,37.85
2017-07-07T17:21:06.743Z,38.21
2017-07-07T17:23:34.736Z,38.02
2017-07-07T17:26:02.352Z,38.26
2017-07-07T17:28:29.893Z,37.81
2017-07-07T17:30:57.447Z,38.78
2017-07-07T17:33:25.044Z,37.86
2017-07-07T17:35:52.659Z,38.39
2017-07-07T17:38:20.221Z,38.11
2017-07-07T17:40:47.823Z,38.32
2017-07-07T17:43:15.351Z,37.97
2017-07-07T17:45:43.288Z,38.38
2017-07-07T17:48:10.805Z,38.82
2017-07-07T17:50:38.333Z,38.39
2017-07-07T17:53:05.909Z,38.38
2017-07-07T17:55:33.454Z,38.75
2017-07-07T17:58:01.060Z,39.38
2017-07-07T18:00:28.649Z,38.46
2017-07-07T18:02:56.594Z,38.36
2017-07-07T18:05:24.115Z,38.86
2017-07-07T18:07:51.636Z,38.71
2017-07-07T18:10:19.189Z,39.03
2017-07-07T18:12:46.714Z,38.14
2017-07-07T18:15:14.260Z,38.44
2017-07-07T18:17:41.796Z,38.48
2017-07-07T18:20:09.336Z,39.05
2017-07-07T18:22:36.877Z,39.25
2017-07-07T18:25:04.560Z,39.71
2017-07-07T18:27:32.077Z,39.98
2017-07-07T18:29:59.604Z,40.32
2017-07-07T18:32:27.167Z,39.91
2017-07-07T18:34:54.700Z,41.34
2017-07-07T18:37:22.289Z,41.83
2017-07-07T18:39:49.825Z,41.89
2017-07-07T18:42:17.710Z,42.64
2017-07-07T18:44:45.252Z,43.08
2017-07-07T18:47:12.768Z,42.83
2017-07-07T18:49:40.322Z,41.62
2017-07-07T18:52:07.847Z,41.70
2017-07-07T18:54:35.444Z,41.93
2017-07-07T18:57:02.960Z,40.93
2017-07-07T18:59:30.528Z,40.45
2017-07-07T19:01:58.102Z,40.52
2017-07-07T19:04:25.812Z,40.22
2017-07-07T19:06:53.332Z,40.30
2017-07-07T19:09:20.863Z,40.08
2017-07-07T19:11:48.409Z,40.70
2017-07-07T19:14:15.955Z,41.71
2017-07-07T19:16:43.520Z,41.69
2017-07-07T19:19:11.043Z,42.04
2017-07-07T19:21:38.587Z,42.79
2017-07-07T19:24:06.115Z,43.40
2017-07-07T19:26:33.688Z,43.99
2017-07-07T19:29:01.245Z,44.03
2017-07-07T19:31:28.792Z,44.51
2017-07-07T19:33:56.386Z,44.88
2017-07-07T19:36:23.951Z,45.86
2017-07-07T19:38:51.533Z,45.26
2017-07-07T19:41:19.057Z,45.66
2017-07-07T19:43:46.604Z,45.99
2017-07-07T19:46:14.135Z,46.50
2017-07-07T19:48:41.720Z,46.44
2017-07-07T19:51:09.358Z,46.63
2017-07-07T19:53:36.945Z,47.34
2017-07-07T19:56:04.495Z,47.64
2017-07-07T19:58:32.019Z,47.43
2017-07-07T20:00:59.566Z,47.73
2017-07-07T20:03:27.108Z,47.75
2017-07-07T20:05:54.863Z,47.81
2017-07-07T20:08:22.406Z,47.96
2017-07-07T20:10:49.957Z,48.31
2017-07-07T20:13:17.536Z,48.79
2017-07-07T20:15:45.117Z,48.54
2017-07-07T20:18:12.642Z,48.46
2017-07-07T20:20:40.209Z,47.82
2017-07-07T20:23:07.743Z,48.44
2017-07-07T20:25:35.265Z,48.70
2017-07-07T20:28:02.833Z,48.59
2017-07-07T20:30:30.371Z,48.83
2017-07-07T20:32:57.915Z,49.29
2017-07-07T20:35:25.436Z,49.09
2017-07-07T20:37:53.000Z,48.92
2017-07-07T20:40:20.558Z,48.93
2017-07-07T20:42:48.073Z,48.99
2017-07-07T20:45:15.625Z,49.71
2017-07-07T20:47:43.155Z,49.96
2017-07-07T20:50:10.705Z,50.19
2017-07-07T20:52:38.242Z,49.93
2017-07-07T20:55:05.789Z,50.70
2017-07-07T20:57:33.312Z,50.72
2017-07-07T21:00:00.893Z,50.70
2017-07-07T21:02:28.425Z,51.05
2017-07-07T21:04:56.004Z,51.85
2017-07-07T21:07:23.539Z,52.09
2017-07-07T21:09:51.079Z,52.21
2017-07-07T21:12:18.703Z,52.47
2017-07-07T21:14:46.211Z,53.14
2017-07-07T21:19:40.548Z,53.23
2017-07-07T21:22:08.121Z,53.27
2017-07-07T21:24:35.658Z,53.41
2017-07-07T21:27:03.247Z,54.03
2017-07-07T21:29:30.792Z,54.02
2017-07-07T21:31:58.312Z,54.24
2017-07-07T21:34:25.873Z,54.91
2017-07-07T21:36:53.412Z,55.24
2017-07-07T21:39:20.930Z,55.49
2017-07-07T21:41:48.739Z,55.44
2017-07-07T21:44:16.260Z,55.51
2017-07-07T21:46:43.778Z,55.15
2017-07-07T21:49:11.311Z,55.18
2017-07-07T21:51:38.871Z,55.43
2017-07-07T21:54:06.408Z,55.86
2017-07-07T21:56:33.927Z,55.83
2017-07-07T21:59:01.556Z,56.43
2017-07-07T22:01:29.096Z,56.15
2017-07-07T22:03:56.650Z,56.45
2017-07-07T22:06:24.174Z,56.85
2017-07-07T22:08:51.709Z,57.39
2017-07-07T22:11:19.264Z,57.75
2017-07-07T22:13:46.830Z,58.05
2017-07-07T22:16:14.340Z,58.40
2017-07-07T22:18:41.903Z,58.60
2017-07-07T22:21:09.413Z,58.87
2017-07-07T22:23:36.957Z,58.84
2017-07-07T22:26:04.485Z,58.82
2017-07-07T22:28:32.035Z,58.73
2017-07-07T22:30:59.908Z,59.29
2017-07-07T22:33:27.463Z,59.55
2017-07-07T22:35:54.978Z,60.00
2017-07-07T22:38:22.488Z,60.12
2017-07-07T22:40:50.036Z,60.34
2017-07-07T22:43:17.701Z,60.57
2017-07-07T22:45:45.261Z,60.82
2017-07-07T22:48:12.788Z,61.30
2017-07-07T22:50:40.408Z,61.61
2017-07-07T22:53:07.943Z,61.70
2017-07-07T22:55:35.501Z,61.98
2017-07-07T22:58:03.036Z,62.28
2017-07-07T23:00:30.622Z,62.78
2017-07-07T23:02:58.136Z,62.66
2017-07-07T23:05:25.874Z,63.45
2017-07-07T23:07:53.388Z,63.00
2017-07-07T23:10:20.913Z,62.91
2017-07-07T23:12:52.095Z,62.41
2017-07-07T23:15:19.783Z,62.67
2017-07-07T23:17:47.409Z,63.59
2017-07-07T23:20:14.941Z,64.08
2017-07-07T23:22:42.501Z,64.05
2017-07-07T23:25:10.027Z,64.62
2017-07-07T23:27:37.604Z,64.31
2017-07-07T23:30:05.132Z,64.13
2017-07-07T23:32:32.895Z,63.52
2017-07-07T23:35:00.427Z,63.99
2017-07-07T23:37:27.949Z,64.23
2017-07-07T23:39:55.492Z,64.32
2017-07-07T23:42:23.108Z,64.08
2017-07-07T23:44:50.616Z,63.69
2017-07-07T23:47:18.171Z,64.48
2017-07-07T23:49:45.780Z,65.11
2017-07-07T23:52:13.299Z,65.65
2017-07-07T23:54:40.868Z,65.92
2017-07-07T23:57:08.380Z,66.12
2017-07-07T23:59:35.940Z,66.49
